Time;durP1;ratioP1;P1;durP2;ratioP2;P2;SDS_P1;SDS_P2;PMS_P1;PMS_P2;Temp;Humidity;BMP_temperature;BMP_pressure;BME280_temperature;BME280_humidity;BME280_pressure;Samples;Min_cycle;Max_cycle;Signal;HPM_P1;HPM_P2
2021/03/09 00:00:49;;;;;;;;;;;0.90;99.90;;;;;;5008159;28;20437;-68
2021/03/09 00:03:15;;;;;;;;;;;0.90;99.90;;;;;;5008847;28;19914;-69
2021/03/09 00:05:40;;;;;;;;;;;0.90;99.90;;;;;;5007293;28;19913;-68
2021/03/09 00:08:06;;;;;;;;;;;0.90;99.90;;;;;;5007967;28;20004;-69
2021/03/09 00:10:31;;;;;;;;;;;0.90;99.90;;;;;;5007583;28;19918;-69
2021/03/09 00:12:57;;;;;;;;;;;0.80;99.90;;;;;;5007579;28;20647;-69
2021/03/09 00:15:22;;;;;;;;;;;0.90;99.90;;;;;;5008515;28;19910;-69
2021/03/09 00:17:48;;;;;;;;;;;0.80;99.90;;;;;;5008774;28;20738;-69
2021/03/09 00:20:13;;;;;;;;;;;0.80;99.90;;;;;;5009078;28;20481;-71
2021/03/09 00:22:39;;;;;;;;;;;0.80;99.90;;;;;;5009253;28;19909;-70
2021/03/09 00:25:05;;;;;;;;;;;0.80;99.90;;;;;;5013350;28;20008;-70
2021/03/09 00:27:33;;;;;;;;;;;0.80;99.90;;;;;;5012472;28;19921;-71
2021/03/09 00:29:58;;;;;;;;;;;0.70;99.90;;;;;;5012364;28;20319;-69
2021/03/09 00:32:24;;;;;;;;;;;0.70;99.90;;;;;;5012225;28;19963;-69
2021/03/09 00:34:49;;;;;;;;;;;0.60;99.90;;;;;;5012518;28;20380;-69
2021/03/09 00:37:15;;;;;;;;;;;0.70;99.90;;;;;;5012440;28;19914;-69
2021/03/09 00:39:40;;;;;;;;;;;0.60;99.90;;;;;;5012799;28;20368;-69
2021/03/09 00:42:06;;;;;;;;;;;0.60;99.90;;;;;;5011380;28;19910;-69
2021/03/09 00:44:31;;;;;;;;;;;0.60;99.90;;;;;;5012247;28;19941;-69
2021/03/09 00:46:57;;;;;;;;;;;0.60;99.90;;;;;;5012422;28;20362;-69
2021/03/09 00:49:22;;;;;;;;;;;0.60;99.90;;;;;;5012635;28;19909;-69
2021/03/09 00:51:48;;;;;;;;;;;0.60;99.90;;;;;;5008645;28;19921;-69
2021/03/09 00:54:13;;;;;;;;;;;0.60;99.90;;;;;;5011922;28;20386;-69
2021/03/09 00:56:39;;;;;;;;;;;0.60;99.90;;;;;;5011851;28;19909;-69
2021/03/09 00:59:04;;;;;;;;;;;0.50;99.90;;;;;;5011575;28;19920;-69
2021/03/09 01:01:33;;;;;;;;;;;0.50;99.90;;;;;;5011778;28;20059;-69
2021/03/09 01:03:58;;;;;;;;;;;0.50;99.90;;;;;;5012033;28;19916;-69
2021/03/09 01:06:24;;;;;;;;;;;0.50;99.90;;;;;;5011511;28;19910;-69
2021/03/09 01:08:49;;;;;;;;;;;0.50;99.90;;;;;;5011715;28;19924;-69
2021/03/09 01:11:16;;;;;;;;;;;0.40;99.90;;;;;;5010795;28;19914;-69
2021/03/09 01:13:42;;;;;;;;;;;0.40;99.90;;;;;;5011447;28;20205;-69
2021/03/09 01:16:07;;;;;;;;;;;0.40;99.90;;;;;;5012094;28;19966;-70
2021/03/09 01:18:33;;;;;;;;;;;0.30;99.90;;;;;;5011698;28;19939;-69
2021/03/09 01:20:58;;;;;;;;;;;0.40;99.90;;;;;;5010630;28;19910;-69
2021/03/09 01:23:24;;;;;;;;;;;0.30;99.90;;;;;;5011765;28;20544;-69
2021/03/09 01:25:49;;;;;;;;;;;0.40;99.90;;;;;;5011138;28;19909;-70
2021/03/09 01:28:15;;;;;;;;;;;0.40;99.90;;;;;;5011494;28;19914;-69
2021/03/09 01:30:40;;;;;;;;;;;0.30;99.90;;;;;;5010218;28;19921;-69
2021/03/09 01:33:06;;;;;;;;;;;0.30;99.90;;;;;;5011664;28;20013;-69
2021/03/09 01:35:31;;;;;;;;;;;0.30;99.90;;;;;;5011830;28;19913;-70
2021/03/09 01:37:57;;;;;;;;;;;0.20;99.90;;;;;;5011407;28;19910;-70
2021/03/09 01:40:23;;;;;;;;;;;0.20;99.90;;;;;;5011050;28;19914;-69
2021/03/09 01:42:49;;;;;;;;;;;0.20;99.90;;;;;;5010215;28;19913;-69
2021/03/09 01:45:14;;;;;;;;;;;0.20;99.90;;;;;;5011058;28;19916;-70
2021/03/09 01:47:42;;;;;;;;;;;0.20;99.90;;;;;;5011800;28;19920;-70
2021/03/09 01:50:08;;;;;;;;;;;0.10;99.90;;;;;;5011131;28;19967;-70
2021/03/09 01:52:34;;;;;;;;;;;0.10;99.90;;;;;;5009461;28;19952;-69
2021/03/09 01:55:00;;;;;;;;;;;0.00;99.90;;;;;;5010943;28;19972;-70
2021/03/09 01:57:25;;;;;;;;;;;0.00;99.90;;;;;;5010815;28;19921;-69
2021/03/09 01:59:52;;;;;;;;;;;0.00;99.90;;;;;;5010875;28;20267;-69
2021/03/09 02:02:18;;;;;;;;;;;0.00;99.90;;;;;;5010660;28;20016;-69
2021/03/09 02:04:43;;;;;;;;;;;0.00;99.90;;;;;;5011137;28;20377;-69
2021/03/09 02:07:09;;;;;;;;;;;0.00;99.90;;;;;;5011059;28;19913;-69
2021/03/09 02:09:35;;;;;;;;;;;0.10;99.90;;;;;;5011157;28;19933;-69
2021/03/09 02:12:01;;;;;;;;;;;0.00;99.90;;;;;;5010155;28;20024;-69
2021/03/09 02:14:28;;;;;;;;;;;0.00;99.90;;;;;;5010342;28;19910;-69
2021/03/09 02:17:06;;;;;;;;;;;0.00;99.90;;;;;;5011010;28;20327;-68
2021/03/09 02:19:40;;;;;;;;;;;-0.10;99.90;;;;;;5011667;28;20420;-69
2021/03/09 02:22:23;;;;;;;;;;;-0.10;99.90;;;;;;5009043;28;19909;-69
2021/03/09 02:24:58;;;;;;;;;;;-0.10;99.90;;;;;;5010727;28;20606;-69
2021/03/09 02:27:47;;;;;;;;;;;-0.10;99.90;;;;;;5010576;28;19990;-70
2021/03/09 02:30:36;;;;;;;;;;;-0.10;99.90;;;;;;5004614;28;19913;-69
2021/03/09 02:33:10;;;;;;;;;;;-0.10;99.90;;;;;;5001207;28;19910;-69
2021/03/09 02:35:39;;;;;;;;;;;-0.20;99.90;;;;;;5010948;28;19913;-70
2021/03/09 02:38:07;;;;;;;;;;;-0.20;99.90;;;;;;5010801;28;19910;-70
2021/03/09 02:40:34;;;;;;;;;;;-0.20;99.90;;;;;;5009358;28;19924;-70
2021/03/09 02:43:09;;;;;;;;;;;-0.20;99.90;;;;;;5009797;28;19917;-69
2021/03/09 02:45:35;;;;;;;;;;;-0.20;99.90;;;;;;5009880;28;20422;-70
2021/03/09 02:48:01;;;;;;;;;;;-0.20;99.90;;;;;;5010767;28;20013;-70
2021/03/09 02:50:27;;;;;;;;;;;-0.20;99.90;;;;;;5009237;28;20385;-69
2021/03/09 02:52:55;;;;;;;;;;;-0.30;99.90;;;;;;5009525;28;19910;-69
2021/03/09 02:55:22;;;;;;;;;;;-0.30;99.90;;;;;;5010018;28;20286;-70
2021/03/09 02:57:48;;;;;;;;;;;-0.30;99.90;;;;;;5009973;28;19925;-69
2021/03/09 03:00:14;;;;;;;;;;;-0.20;99.90;;;;;;5009805;28;20414;-69
2021/03/09 03:02:40;;;;;;;;;;;-0.20;99.90;;;;;;5009191;28;19929;-70
2021/03/09 03:05:07;;;;;;;;;;;-0.30;99.90;;;;;;5009778;28;19910;-69
2021/03/09 03:07:33;;;;;;;;;;;-0.30;99.90;;;;;;5009550;28;19917;-69
2021/03/09 03:10:00;;;;;;;;;;;-0.30;99.90;;;;;;5009871;28;20366;-69
2021/03/09 03:12:29;;;;;;;;;;;-0.30;99.90;;;;;;5008705;28;19924;-69
2021/03/09 03:14:55;;;;;;;;;;;-0.30;99.90;;;;;;5008867;28;20328;-69
2021/03/09 03:17:20;;;;;;;;;;;-0.40;99.90;;;;;;5009746;28;19918;-69
2021/03/09 03:19:46;;;;;;;;;;;-0.40;99.90;;;;;;5009307;28;19909;-69
2021/03/09 03:22:14;;;;;;;;;;;-0.40;99.90;;;;;;5008470;28;20009;-69
2021/03/09 03:24:40;;;;;;;;;;;-0.40;99.90;;;;;;5009107;28;19921;-69
2021/03/09 03:27:06;;;;;;;;;;;-0.40;99.90;;;;;;5008846;28;19979;-69
2021/03/09 03:29:32;;;;;;;;;;;-0.40;99.90;;;;;;5008065;28;20365;-69
2021/03/09 03:31:57;;;;;;;;;;;-0.40;99.90;;;;;;5008573;28;19914;-68
2021/03/09 03:34:23;;;;;;;;;;;-0.40;99.90;;;;;;5009263;28;19917;-69
2021/03/09 03:36:49;;;;;;;;;;;-0.40;99.90;;;;;;5008741;28;20322;-69
2021/03/09 03:39:14;;;;;;;;;;;-0.40;99.90;;;;;;5009062;28;19920;-68
2021/03/09 03:41:40;;;;;;;;;;;-0.40;99.90;;;;;;5008104;28;19984;-71
2021/03/09 03:44:06;;;;;;;;;;;-0.40;99.90;;;;;;5008139;28;19945;-69
2021/03/09 03:46:31;;;;;;;;;;;-0.40;99.90;;;;;;5009353;28;19976;-69
2021/03/09 03:48:57;;;;;;;;;;;-0.30;99.90;;;;;;5008327;28;19917;-69
2021/03/09 03:51:26;;;;;;;;;;;-0.40;99.90;;;;;;5008043;28;19972;-69
2021/03/09 03:53:52;;;;;;;;;;;-0.40;99.90;;;;;;5008671;28;19909;-69
2021/03/09 03:56:35;;;;;;;;;;;-0.40;99.90;;;;;;5008152;28;19963;-68
2021/03/09 03:59:10;;;;;;;;;;;-0.40;99.90;;;;;;5008046;28;19955;-68
2021/03/09 04:01:36;;;;;;;;;;;-0.40;99.90;;;;;;5008566;28;20008;-68
2021/03/09 04:04:05;;;;;;;;;;;-0.40;99.90;;;;;;5009100;28;20366;-68
2021/03/09 04:06:31;;;;;;;;;;;-0.40;99.90;;;;;;5008762;28;19940;-68
2021/03/09 04:08:58;;;;;;;;;;;-0.50;99.90;;;;;;5008951;28;19996;-68
2021/03/09 04:11:25;;;;;;;;;;;-0.40;99.90;;;;;;5008039;28;20434;-68
2021/03/09 04:13:51;;;;;;;;;;;-0.40;99.90;;;;;;5008470;28;19980;-68
2021/03/09 04:16:16;;;;;;;;;;;-0.40;99.90;;;;;;5009128;28;19945;-68
2021/03/09 04:18:43;;;;;;;;;;;-0.50;99.90;;;;;;5008529;28;20083;-68
2021/03/09 04:21:08;;;;;;;;;;;-0.50;99.90;;;;;;5008224;28;19914;-69
2021/03/09 04:23:35;;;;;;;;;;;-0.50;99.90;;;;;;5009499;28;19959;-69
2021/03/09 04:26:01;;;;;;;;;;;-0.50;99.90;;;;;;5008783;28;20551;-69
2021/03/09 04:28:27;;;;;;;;;;;-0.50;99.90;;;;;;5008391;28;20286;-69
2021/03/09 04:30:53;;;;;;;;;;;-0.60;99.90;;;;;;5007947;28;19914;-69
2021/03/09 04:33:19;;;;;;;;;;;-0.50;99.90;;;;;;5008962;28;19909;-69
2021/03/09 04:35:44;;;;;;;;;;;-0.60;99.90;;;;;;5009958;28;19909;-69
2021/03/09 04:38:10;;;;;;;;;;;-0.60;99.90;;;;;;5009488;28;19949;-69
2021/03/09 04:40:36;;;;;;;;;;;-0.60;99.90;;;;;;5008411;28;19951;-69
2021/03/09 04:43:02;;;;;;;;;;;-0.60;99.90;;;;;;5006954;28;19914;-69
2021/03/09 04:45:28;;;;;;;;;;;-0.60;99.90;;;;;;5008911;28;19910;-69
2021/03/09 04:47:54;;;;;;;;;;;-0.60;99.90;;;;;;5008638;28;19936;-69
2021/03/09 04:50:20;;;;;;;;;;;-0.60;99.90;;;;;;5007934;28;19965;-69
2021/03/09 04:52:49;;;;;;;;;;;-0.70;99.90;;;;;;5007386;28;19917;-69
2021/03/09 04:58:15;;;;;;;;;;;-0.70;99.90;;;;;;4979165;28;19957;-69
2021/03/09 05:00:41;;;;;;;;;;;-0.70;99.90;;;;;;5007427;28;20395;-69
2021/03/09 05:03:06;;;;;;;;;;;-0.70;99.90;;;;;;5008685;28;19917;-69
2021/03/09 05:05:32;;;;;;;;;;;-0.70;99.90;;;;;;5009319;28;20341;-69
2021/03/09 05:07:57;;;;;;;;;;;-0.80;99.90;;;;;;5009338;28;19910;-69
2021/03/09 05:10:23;;;;;;;;;;;-0.80;99.90;;;;;;5012154;28;20374;-69
2021/03/09 05:12:49;;;;;;;;;;;-0.70;99.90;;;;;;5010638;28;19919;-70
2021/03/09 05:15:15;;;;;;;;;;;-0.80;99.90;;;;;;5012283;28;19913;-70
2021/03/09 05:17:40;;;;;;;;;;;-0.80;99.90;;;;;;5011892;28;19925;-70
2021/03/09 05:20:08;;;;;;;;;;;-0.80;99.90;;;;;;5012192;28;19909;-70
2021/03/09 05:22:33;;;;;;;;;;;-0.80;99.90;;;;;;5010358;28;19910;-70
2021/03/09 05:24:59;;;;;;;;;;;-0.80;99.90;;;;;;5011783;28;19916;-70
2021/03/09 05:27:24;;;;;;;;;;;-0.80;99.90;;;;;;5010601;28;19996;-70
2021/03/09 05:29:50;;;;;;;;;;;-0.70;99.90;;;;;;5009283;28;19913;-70
2021/03/09 05:32:15;;;;;;;;;;;-0.80;99.90;;;;;;5010621;28;20004;-70
2021/03/09 05:34:41;;;;;;;;;;;-0.80;99.90;;;;;;5011393;28;20004;-70
2021/03/09 05:37:07;;;;;;;;;;;-0.80;99.90;;;;;;5011523;28;19935;-68
2021/03/09 05:39:32;;;;;;;;;;;-0.80;99.90;;;;;;5011734;28;20333;-68
2021/03/09 05:41:58;;;;;;;;;;;-0.70;99.90;;;;;;5010513;28;19913;-68
2021/03/09 05:44:23;;;;;;;;;;;-0.70;99.90;;;;;;5010617;28;19971;-69
2021/03/09 05:46:49;;;;;;;;;;;-0.60;99.90;;;;;;5011484;28;20001;-68
2021/03/09 05:49:14;;;;;;;;;;;-0.70;99.90;;;;;;5008692;28;19909;-68
2021/03/09 05:51:40;;;;;;;;;;;-0.60;99.90;;;;;;5010226;28;19995;-68
2021/03/09 05:54:05;;;;;;;;;;;-0.60;99.90;;;;;;5010372;28;19976;-69
2021/03/09 05:56:33;;;;;;;;;;;-0.40;99.90;;;;;;5010269;28;19936;-68
2021/03/09 05:58:59;;;;;;;;;;;-0.40;99.90;;;;;;5008753;28;19914;-68
2021/03/09 06:01:25;;;;;;;;;;;-0.20;99.90;;;;;;5010387;28;20009;-68
2021/03/09 06:03:50;;;;;;;;;;;0.00;99.90;;;;;;5011344;28;19948;-68
2021/03/09 06:06:16;;;;;;;;;;;0.20;99.90;;;;;;5010526;28;19913;-68
2021/03/09 06:08:41;;;;;;;;;;;0.30;99.90;;;;;;5011121;28;20095;-69
2021/03/09 06:11:16;;;;;;;;;;;0.60;99.90;;;;;;5006167;28;20377;-72
2021/03/09 06:13:42;;;;;;;;;;;;;;;;;;4999748;28;19961;-72
2021/03/09 06:16:08;;;;;;;;;;;;;;;;;;5010109;28;19910;-72
2021/03/09 06:18:33;;;;;;;;;;;;;;;;;;5011146;28;19941;-73
2021/03/09 06:20:59;;;;;;;;;;;;;;;;;;5009164;28;19916;-73
2021/03/09 06:23:25;;;;;;;;;;;;;;;;;;5010833;28;19910;-72
2021/03/09 06:25:51;;;;;;;;;;;;;;;;;;5009857;28;20007;-70
2021/03/09 06:28:28;;;;;;;;;;;3.10;99.90;;;;;;5003003;28;20332;-72
2021/03/09 06:30:54;;;;;;;;;;;4.00;99.90;;;;;;5004599;28;19922;-72
2021/03/09 06:33:20;;;;;;;;;;;;;;;;;;4998299;28;20488;-73
2021/03/09 06:35:46;;;;;;;;;;;;;;;;;;4995887;28;19960;-70
2021/03/09 06:38:20;;;;;;;;;;;6.30;99.90;;;;;;4997736;28;20239;-69
2021/03/09 06:41:04;;;;;;;;;;;7.10;99.90;;;;;;4994269;28;19914;-70
2021/03/09 06:43:30;;;;;;;;;;;7.90;99.90;;;;;;4991003;28;20275;-70
2021/03/09 06:46:16;;;;;;;;;;;8.50;99.90;;;;;;5000331;28;19914;-69
2021/03/09 06:48:42;;;;;;;;;;;9.30;99.90;;;;;;4997469;28;19917;-70
2021/03/09 06:51:22;;;;;;;;;;;9.80;99.90;;;;;;4998858;28;19928;-70
2021/03/09 06:53:56;;;;;;;;;;;10.40;99.90;;;;;;4998432;28;19914;-69
2021/03/09 06:56:23;;;;;;;;;;;10.90;99.90;;;;;;4996519;28;19914;-70
2021/03/09 06:58:49;;;;;;;;;;;11.00;99.20;;;;;;5004414;28;19914;-71
2021/03/09 07:01:15;;;;;;;;;;;11.30;97.70;;;;;;4990913;28;19924;-70
2021/03/09 07:03:40;;;;;;;;;;;11.70;96.40;;;;;;4992340;28;20361;-72
2021/03/09 07:06:06;;;;;;;;;;;11.90;94.80;;;;;;4996694;28;19920;-71
2021/03/09 07:08:31;;;;;;;;;;;12.40;93.40;;;;;;4993474;28;20268;-70
2021/03/09 07:10:57;;;;;;;;;;;12.60;92.20;;;;;;4992312;28;19997;-70
2021/03/09 07:13:23;;;;;;;;;;;13.00;91.20;;;;;;5006364;28;19929;-70
2021/03/09 07:15:50;;;;;;;;;;;13.30;89.40;;;;;;5002201;28;19999;-70
2021/03/09 07:18:18;;;;;;;;;;;14.00;88.20;;;;;;4997020;28;20034;-70
2021/03/09 07:20:44;;;;;;;;;;;15.10;71.80;;;;;;5002263;28;20057;-70
2021/03/09 07:23:11;;;;;;;;;;;15.70;69.40;;;;;;5003046;28;20037;-70
2021/03/09 07:25:37;;;;;;;;;;;17.10;63.20;;;;;;5002072;28;19917;-69
2021/03/09 07:28:04;;;;;;;;;;;18.10;57.20;;;;;;5008210;28;19929;-70
2021/03/09 07:30:32;;;;;;;;;;;19.00;53.60;;;;;;5000898;28;20049;-69
2021/03/09 07:32:58;;;;;;;;;;;20.10;48.80;;;;;;4998232;28;19914;-70
2021/03/09 07:35:24;;;;;;;;;;;19.60;47.10;;;;;;4997292;28;19914;-70
2021/03/09 07:37:51;;;;;;;;;;;19.60;46.50;;;;;;4999289;28;19978;-70
2021/03/09 07:40:18;;;;;;;;;;;20.00;44.80;;;;;;5004890;28;19963;-70
2021/03/09 07:42:43;;;;;;;;;;;19.50;44.20;;;;;;4992421;28;20012;-70
2021/03/09 07:45:10;;;;;;;;;;;20.10;43.90;;;;;;4999882;28;20352;-68
2021/03/09 07:47:43;;;;;;;;;;;20.80;42.20;;;;;;4994229;28;19914;-69
2021/03/09 07:50:11;;;;;;;;;;;20.40;41.20;;;;;;4997471;28;20004;-71
2021/03/09 07:52:36;;;;;;;;;;;19.10;41.90;;;;;;4991586;28;20458;-71
2021/03/09 07:55:02;;;;;;;;;;;18.10;43.10;;;;;;4996197;28;20016;-69
2021/03/09 07:57:28;;;;;;;;;;;17.20;44.30;;;;;;4999808;28;20370;-69
2021/03/09 07:59:54;;;;;;;;;;;16.40;46.00;;;;;;5000555;28;20034;-70
2021/03/09 08:02:38;;;;;;;;;;;15.60;46.70;;;;;;5002118;28;20374;-69
2021/03/09 08:05:04;;;;;;;;;;;15.00;47.70;;;;;;5007371;28;20263;-71
2021/03/09 08:07:50;;;;;;;;;;;14.50;48.80;;;;;;4999392;28;20079;-70
2021/03/09 08:10:27;;;;;;;;;;;15.50;48.80;;;;;;4994044;28;19917;-70
2021/03/09 08:13:16;;;;;;;;;;;17.30;46.60;;;;;;4999343;28;20056;-70
2021/03/09 08:15:42;;;;;;;;;;;17.70;44.60;;;;;;4986350;28;19922;-70
2021/03/09 08:18:28;;;;;;;;;;;17.30;44.90;;;;;;4991660;28;20013;-69
2021/03/09 08:20:54;;;;;;;;;;;17.10;45.50;;;;;;4999744;28;20321;-69
2021/03/09 08:23:32;;;;;;;;;;;18.20;44.20;;;;;;4998098;28;19941;-70
2021/03/09 08:25:58;;;;;;;;;;;18.00;44.10;;;;;;5000857;28;19953;-69
2021/03/09 08:28:30;;;;;;;;;;;19.00;43.60;;;;;;5001198;28;20405;-70
2021/03/09 08:31:15;;;;;;;;;;;19.80;42.30;;;;;;4992630;28;19952;-70
2021/03/09 08:33:41;;;;;;;;;;;20.20;41.50;;;;;;5003051;28;19983;-69
2021/03/09 08:36:26;;;;;;;;;;;20.80;41.20;;;;;;4995750;28;19917;-71
2021/03/09 08:39:00;;;;;;;;;;;20.30;40.90;;;;;;4999792;28;20008;-70
2021/03/09 08:41:26;;;;;;;;;;;21.00;41.10;;;;;;4998056;28;20408;-70
2021/03/09 08:44:11;;;;;;;;;;;21.10;40.70;;;;;;5000871;28;19921;-69
2021/03/09 08:46:51;;;;;;;;;;;20.50;41.00;;;;;;5009646;28;20272;-70
2021/03/09 08:49:51;;;;;;;;;;;19.40;42.30;;;;;;4999787;28;19914;-70
2021/03/09 08:52:17;;;;;;;;;;;18.30;42.60;;;;;;4961463;28;20013;-70
2021/03/09 08:54:48;;;;;;;;;;;18.20;43.80;;;;;;5003244;28;19924;-69
2021/03/09 08:57:19;;;;;;;;;;;18.80;43.00;;;;;;4998874;28;19917;-71
2021/03/09 08:59:48;;;;;;;;;;;19.20;43.20;;;;;;5000074;28;19936;-70
2021/03/09 09:02:17;;;;;;;;;;;19.80;42.40;;;;;;5007687;28;19989;-71
2021/03/09 09:04:44;;;;;;;;;;;21.10;41.10;;;;;;5003611;28;20021;-70
2021/03/09 09:07:21;;;;;;;;;;;21.40;42.40;;;;;;5005026;28;19976;-71
2021/03/09 09:09:47;;;;;;;;;;;22.10;41.00;;;;;;5001707;28;19920;-71
2021/03/09 09:12:22;;;;;;;;;;;23.20;39.20;;;;;;4999914;28;19967;-70
2021/03/09 09:15:02;;;;;;;;;;;24.60;35.10;;;;;;5001498;28;20004;-71
2021/03/09 09:17:28;;;;;;;;;;;24.50;34.10;;;;;;5000818;28;19924;-72
2021/03/09 09:19:57;;;;;;;;;;;23.50;33.80;;;;;;5006814;28;19913;-72
2021/03/09 09:22:24;;;;;;;;;;;22.40;34.30;;;;;;5005977;28;19929;-71
2021/03/09 09:24:53;;;;;;;;;;;22.30;35.40;;;;;;5001078;28;19918;-67
2021/03/09 09:27:19;;;;;;;;;;;22.80;34.40;;;;;;5001674;28;20378;-70
2021/03/09 09:29:52;;;;;;;;;;;22.40;34.80;;;;;;5009452;28;19956;-69
2021/03/09 09:32:17;;;;;;;;;;;22.40;34.50;;;;;;5004649;28;19940;-70
2021/03/09 09:34:43;;;;;;;;;;;23.20;34.10;;;;;;5007925;28;20502;-69
2021/03/09 09:37:10;;;;;;;;;;;24.30;33.30;;;;;;4996303;28;19957;-69
2021/03/09 09:39:36;;;;;;;;;;;24.60;32.50;;;;;;5007669;28;20008;-70
2021/03/09 09:42:01;;;;;;;;;;;25.90;31.00;;;;;;4997611;28;20013;-69
2021/03/09 09:44:27;;;;;;;;;;;27.30;31.80;;;;;;4998491;28;19920;-69
2021/03/09 09:46:53;;;;;;;;;;;27.70;33.60;;;;;;5007517;28;19913;-69
2021/03/09 09:49:18;;;;;;;;;;;27.10;28.00;;;;;;4995331;28;19925;-69
2021/03/09 09:51:45;;;;;;;;;;;26.30;28.40;;;;;;5001646;28;19928;-70
2021/03/09 09:54:11;;;;;;;;;;;24.70;29.20;;;;;;5003186;28;19914;-69
2021/03/09 09:56:36;;;;;;;;;;;23.80;29.70;;;;;;4998622;28;20359;-69
2021/03/09 09:59:02;;;;;;;;;;;22.20;30.80;;;;;;5003483;28;19913;-69
2021/03/09 10:01:37;;;;;;;;;;;22.20;31.30;;;;;;5000100;28;20406;-70
2021/03/09 10:04:10;;;;;;;;;;;21.10;31.30;;;;;;5002701;28;20426;-69
2021/03/09 10:06:39;;;;;;;;;;;20.90;32.50;;;;;;4999418;28;19913;-70
2021/03/09 10:09:09;;;;;;;;;;;21.20;32.50;;;;;;4999851;28;19948;-69
2021/03/09 10:11:51;;;;;;;;;;;21.90;32.30;;;;;;4999537;28;20040;-69
2021/03/09 10:14:17;;;;;;;;;;;22.30;31.10;;;;;;5002746;28;20260;-69
2021/03/09 10:16:43;;;;;;;;;;;20.00;32.70;;;;;;5006132;28;19920;-68
2021/03/09 10:19:09;;;;;;;;;;;18.80;34.60;;;;;;4998463;28;19913;-69
2021/03/09 10:21:36;;;;;;;;;;;19.00;35.40;;;;;;4995853;28;19924;-69
2021/03/09 10:24:02;;;;;;;;;;;18.80;35.30;;;;;;5007058;28;19914;-70
2021/03/09 10:26:28;;;;;;;;;;;19.30;35.20;;;;;;4996425;28;19913;-70
2021/03/09 10:29:03;;;;;;;;;;;19.80;34.40;;;;;;5000592;28;19921;-71
2021/03/09 10:31:42;;;;;;;;;;;19.10;34.80;;;;;;4999706;28;19918;-70
2021/03/09 10:34:08;;;;;;;;;;;19.60;35.30;;;;;;5000454;28;20001;-70
2021/03/09 10:36:49;;;;;;;;;;;20.20;33.90;;;;;;5000229;28;19913;-69
2021/03/09 10:39:15;;;;;;;;;;;19.60;34.70;;;;;;5031693;28;20334;-70
2021/03/09 10:41:40;;;;;;;;;;;19.30;34.20;;;;;;4997922;28;19948;-70
2021/03/09 10:44:06;;;;;;;;;;;19.10;33.80;;;;;;5001070;28;19913;-70
2021/03/09 10:46:34;;;;;;;;;;;19.00;34.10;;;;;;4998745;28;19918;-70
2021/03/09 10:48:59;;;;;;;;;;;18.90;33.90;;;;;;4997725;28;19914;-71
2021/03/09 10:51:25;;;;;;;;;;;19.30;33.70;;;;;;4990067;28;19914;-71
2021/03/09 10:53:51;;;;;;;;;;;19.40;34.00;;;;;;5010258;28;20266;-70
2021/03/09 10:56:16;;;;;;;;;;;17.60;32.70;;;;;;4999702;28;20458;-70
2021/03/09 10:58:42;;;;;;;;;;;17.70;35.00;;;;;;4999139;28;19921;-70
2021/03/09 11:01:07;;;;;;;;;;;17.80;34.80;;;;;;4996864;28;19917;-70
2021/03/09 11:03:33;;;;;;;;;;;17.40;35.40;;;;;;5002262;28;19989;-69
2021/03/09 11:05:58;;;;;;;;;;;17.60;36.00;;;;;;5003917;28;20021;-69
2021/03/09 11:08:24;;;;;;;;;;;17.90;35.70;;;;;;5001371;28;20404;-70
2021/03/09 11:10:58;;;;;;;;;;;18.00;40.40;;;;;;4999204;28;19945;-70
2021/03/09 11:13:24;;;;;;;;;;;18.80;35.20;;;;;;5002088;28;20000;-70
2021/03/09 11:15:49;;;;;;;;;;;19.60;34.40;;;;;;4994245;28;20036;-70
2021/03/09 11:18:15;;;;;;;;;;;20.40;33.60;;;;;;5000052;28;19968;-70
2021/03/09 11:20:41;;;;;;;;;;;19.90;33.40;;;;;;4995727;28;19918;-70
2021/03/09 11:23:07;;;;;;;;;;;19.10;34.00;;;;;;4994984;28;19914;-69
2021/03/09 11:25:35;;;;;;;;;;;18.80;34.20;;;;;;4999079;28;19972;-70
2021/03/09 11:28:01;;;;;;;;;;;19.00;34.40;;;;;;5002657;28;19913;-70
2021/03/09 11:30:26;;;;;;;;;;;18.60;34.80;;;;;;4999534;28;19920;-69
2021/03/09 11:32:52;;;;;;;;;;;18.70;35.20;;;;;;5002276;28;19914;-69
2021/03/09 11:35:17;;;;;;;;;;;18.80;34.70;;;;;;4993033;28;19933;-71
2021/03/09 11:37:43;;;;;;;;;;;18.80;34.30;;;;;;5005339;28;19975;-70
2021/03/09 11:40:09;;;;;;;;;;;18.10;33.20;;;;;;5002076;28;19936;-70
2021/03/09 11:42:34;;;;;;;;;;;18.10;33.60;;;;;;4998619;28;19921;-69
2021/03/09 11:45:00;;;;;;;;;;;17.50;33.20;;;;;;5001189;28;19914;-69
2021/03/09 11:47:25;;;;;;;;;;;17.30;34.50;;;;;;4995999;28;19929;-69
2021/03/09 11:49:51;;;;;;;;;;;17.40;34.30;;;;;;5002344;28;19990;-69
2021/03/09 11:52:16;;;;;;;;;;;16.90;34.80;;;;;;4993906;28;20382;-70
2021/03/09 11:54:42;;;;;;;;;;;16.60;35.30;;;;;;4997612;28;19914;-70
2021/03/09 11:57:08;;;;;;;;;;;16.00;34.80;;;;;;4995853;28;19914;-72
2021/03/09 11:59:33;;;;;;;;;;;15.70;35.10;;;;;;4993126;28;19914;-72
2021/03/09 12:01:59;;;;;;;;;;;15.70;35.40;;;;;;5004294;28;19965;-70
2021/03/09 12:04:24;;;;;;;;;;;15.60;37.30;;;;;;5005615;28;20364;-71
2021/03/09 12:06:50;;;;;;;;;;;15.60;36.50;;;;;;5001513;28;20538;-70
2021/03/09 12:09:15;;;;;;;;;;;15.40;36.00;;;;;;5001863;28;19917;-69
2021/03/09 12:11:41;;;;;;;;;;;15.30;36.20;;;;;;4995903;28;20400;-69
2021/03/09 12:14:06;;;;;;;;;;;15.00;36.40;;;;;;5006971;28;19913;-69
2021/03/09 12:16:32;;;;;;;;;;;14.90;35.80;;;;;;5000191;28;20295;-69
2021/03/09 12:18:57;;;;;;;;;;;15.00;36.60;;;;;;4998167;28;19949;-69
2021/03/09 12:21:23;;;;;;;;;;;15.40;36.10;;;;;;4996286;28;19914;-69
2021/03/09 12:23:48;;;;;;;;;;;15.50;36.20;;;;;;5003529;28;20668;-70
2021/03/09 12:26:14;;;;;;;;;;;16.10;35.90;;;;;;4990843;28;19972;-70
2021/03/09 12:28:42;;;;;;;;;;;16.00;36.10;;;;;;5007460;28;19917;-69
2021/03/09 12:31:08;;;;;;;;;;;16.10;36.50;;;;;;4998280;28;19913;-70
2021/03/09 12:33:33;;;;;;;;;;;16.00;35.90;;;;;;5000439;28;19917;-69
2021/03/09 12:35:59;;;;;;;;;;;15.80;36.10;;;;;;4993741;28;20412;-69
2021/03/09 12:38:26;;;;;;;;;;;15.80;35.90;;;;;;4998840;28;19913;-69
2021/03/09 12:40:52;;;;;;;;;;;16.00;35.50;;;;;;5000190;28;19982;-69
2021/03/09 12:43:17;;;;;;;;;;;15.90;35.40;;;;;;4994827;28;19918;-74
2021/03/09 12:45:43;;;;;;;;;;;15.90;35.80;;;;;;5000878;28;19966;-65
2021/03/09 12:48:08;;;;;;;;;;;16.20;35.80;;;;;;4995555;28;20160;-66
2021/03/09 12:50:34;;;;;;;;;;;16.00;35.10;;;;;;4996424;28;20103;-65
2021/03/09 12:52:59;;;;;;;;;;;15.80;35.50;;;;;;4993027;28;19972;-66
2021/03/09 12:55:25;;;;;;;;;;;15.80;35.70;;;;;;4990392;28;20028;-67
2021/03/09 12:57:50;;;;;;;;;;;15.80;35.40;;;;;;4997373;28;19918;-64
2021/03/09 13:00:16;;;;;;;;;;;15.70;35.50;;;;;;5000971;28;19973;-66
2021/03/09 13:02:42;;;;;;;;;;;15.20;35.60;;;;;;4999029;28;19957;-67
2021/03/09 13:05:08;;;;;;;;;;;14.90;36.00;;;;;;4998388;28;19920;-66
2021/03/09 13:07:34;;;;;;;;;;;14.60;36.30;;;;;;4997397;28;20028;-66
2021/03/09 13:09:59;;;;;;;;;;;14.70;37.00;;;;;;4996327;28;19936;-65
2021/03/09 13:12:25;;;;;;;;;;;14.70;36.70;;;;;;4992871;28;20016;-67
2021/03/09 13:14:50;;;;;;;;;;;14.60;36.80;;;;;;4995667;28;19972;-67
2021/03/09 13:17:16;;;;;;;;;;;14.70;36.70;;;;;;4999907;28;20394;-66
2021/03/09 13:19:41;;;;;;;;;;;14.80;36.20;;;;;;4996828;28;19921;-65
2021/03/09 13:22:07;;;;;;;;;;;14.70;36.30;;;;;;4994053;28;20469;-65
2021/03/09 13:24:33;;;;;;;;;;;14.60;36.20;;;;;;4995911;28;19928;-65
2021/03/09 13:26:58;;;;;;;;;;;14.50;36.70;;;;;;4997528;28;19968;-66
2021/03/09 13:29:24;;;;;;;;;;;14.40;36.50;;;;;;5000477;28;19980;-66
2021/03/09 13:31:49;;;;;;;;;;;14.10;36.90;;;;;;5003175;28;19971;-66
2021/03/09 13:34:15;;;;;;;;;;;13.90;37.00;;;;;;5003807;28;19914;-66
2021/03/09 13:36:40;;;;;;;;;;;13.90;37.10;;;;;;5002510;28;19924;-66
2021/03/09 13:39:06;;;;;;;;;;;14.00;37.50;;;;;;4997222;28;20256;-66
2021/03/09 13:41:32;;;;;;;;;;;14.20;37.30;;;;;;4994426;28;19975;-66
2021/03/09 13:43:57;;;;;;;;;;;14.10;37.20;;;;;;4997087;28;19959;-65
2021/03/09 13:46:47;;;;;;;;;;;13.80;36.60;;;;;;5000747;28;20012;-66
2021/03/09 13:49:12;;;;;;;;;;;13.40;37.30;;;;;;4999425;28;19917;-65
2021/03/09 13:51:38;;;;;;;;;;;12.90;38.40;;;;;;4997949;28;19993;-65
2021/03/09 13:54:03;;;;;;;;;;;12.80;38.60;;;;;;5001398;28;19925;-66
2021/03/09 13:56:32;;;;;;;;;;;12.50;46.00;;;;;;4997198;28;19997;-66
2021/03/09 13:58:58;;;;;;;;;;;12.00;38.60;;;;;;5000522;28;20403;-66
2021/03/09 14:01:23;;;;;;;;;;;11.90;39.40;;;;;;4999494;28;19918;-65
2021/03/09 14:03:49;;;;;;;;;;;11.80;39.70;;;;;;4999046;28;19923;-66
2021/03/09 14:06:15;;;;;;;;;;;11.90;40.00;;;;;;4998047;28;19925;-66
2021/03/09 14:08:40;;;;;;;;;;;12.20;39.60;;;;;;4999359;28;19929;-66
2021/03/09 14:11:06;;;;;;;;;;;12.20;39.90;;;;;;4996008;28;19961;-66
2021/03/09 14:13:31;;;;;;;;;;;12.10;39.70;;;;;;4997763;28;20013;-66
2021/03/09 14:15:57;;;;;;;;;;;12.00;39.80;;;;;;5001564;28;19913;-66
2021/03/09 14:18:25;;;;;;;;;;;11.90;40.20;;;;;;4996823;28;19921;-66
2021/03/09 14:20:50;;;;;;;;;;;11.90;40.40;;;;;;4996364;28;19937;-66
2021/03/09 14:23:21;;;;;;;;;;;12.10;40.30;;;;;;4998402;28;19917;-67
2021/03/09 14:25:47;;;;;;;;;;;12.20;40.30;;;;;;4998375;28;19921;-67
2021/03/09 14:28:19;;;;;;;;;;;12.40;39.90;;;;;;4998862;28;19921;-66